Time;durP1;ratioP1;P1;durP2;ratioP2;P2;SDS_P1;SDS_P2;PMS_P1;PMS_P2;Temp;Humidity;BMP_temperature;BMP_pressure;BME280_temperature;BME280_humidity;BME280_pressure;Samples;Min_cycle;Max_cycle;Signal;HPM_P1;HPM_P2
2023/01/13 00:00:58;;;;;;;3.03;1.10;;;;;;;11.92;70.27;96711.00;4996276;28;20577;-77
2023/01/13 00:03:24;;;;;;;4.20;1.15;;;;;;;11.72;71.16;96712.56;5027560;28;20032;-77
2023/01/13 00:05:49;;;;;;;5.13;1.13;;;;;;;11.82;69.88;96696.13;5012007;28;20033;-77
2023/01/13 00:08:14;;;;;;;2.97;1.23;;;;;;;11.60;70.98;96707.63;5029510;28;20034;-78
2023/01/13 00:10:40;;;;;;;4.43;1.77;;;;;;;11.70;71.08;96696.38;5027915;28;20107;-79
2023/01/13 00:13:05;;;;;;;2.33;0.98;;;;;;;11.76;70.55;96692.75;5029427;28;20163;-78
2023/01/13 00:15:31;;;;;;;2.70;1.08;;;;;;;11.84;70.64;96682.81;5011633;28;20404;-78
2023/01/13 00:17:57;;;;;;;1.35;0.68;;;;;;;12.01;69.75;96704.19;5028495;28;20294;-78
2023/01/13 00:20:22;;;;;;;3.17;1.25;;;;;;;12.12;69.51;96699.75;5027789;28;20446;-78
2023/01/13 00:22:47;;;;;;;4.20;1.50;;;;;;;12.24;68.66;96695.00;5027936;28;20037;-77
2023/01/13 00:25:13;;;;;;;3.38;1.15;;;;;;;12.26;68.97;96698.13;5011301;28;20039;-77
2023/01/13 00:27:38;;;;;;;2.13;0.95;;;;;;;11.44;71.79;96690.41;5028143;28;20037;-78
2023/01/13 00:30:05;;;;;;;3.90;1.58;;;;;;;11.76;71.05;96697.97;5027385;28;20387;-80
2023/01/13 00:32:30;;;;;;;1.77;0.85;;;;;;;11.86;70.76;96691.16;5028322;28;20037;-78
2023/01/13 00:34:56;;;;;;;3.40;1.30;;;;;;;11.89;70.71;96685.41;5027683;28;20040;-78
2023/01/13 00:37:22;;;;;;;1.52;0.90;;;;;;;11.90;69.72;96677.31;5029014;28;20465;-78
2023/01/13 00:39:47;;;;;;;3.03;0.80;;;;;;;11.73;70.97;96688.03;5010804;28;20055;-78
2023/01/13 00:44:57;;;;;;;1.45;0.82;;;;;;;11.95;70.17;96684.41;5014184;28;20084;-77
2023/01/13 00:47:22;;;;;;;2.55;0.95;;;;;;;11.59;71.54;96679.22;5027486;28;20029;-77
2023/01/13 00:49:48;;;;;;;1.45;1.00;;;;;;;11.95;70.27;96676.56;5027198;28;20091;-77
2023/01/13 00:52:14;;;;;;;1.35;0.75;;;;;;;11.79;70.64;96671.34;5010970;28;20500;-78
2023/01/13 00:54:39;;;;;;;3.05;0.80;;;;;;;11.87;70.47;96653.59;5011319;28;20030;-77
2023/01/13 00:57:05;;;;;;;2.35;0.90;;;;;;;11.75;70.89;96659.09;5027436;28;20025;-77
2023/01/13 00:59:30;;;;;;;3.83;0.90;;;;;;;11.41;72.25;96655.25;5011009;28;20056;-78
2023/01/13 01:01:55;;;;;;;2.95;0.73;;;;;;;11.86;70.89;96667.66;5023944;28;20548;-77
2023/01/13 01:04:21;;;;;;;2.65;1.08;;;;;;;11.68;71.33;96656.75;5018920;28;20507;-78
2023/01/13 01:06:47;;;;;;;1.90;0.60;;;;;;;11.74;71.09;96658.31;5011036;28;20470;-77
2023/01/13 01:09:13;;;;;;;1.20;0.70;;;;;;;11.76;70.63;96650.25;5010519;28;20469;-78
2023/01/13 01:11:39;;;;;;;2.10;0.75;;;;;;;11.84;70.86;96634.06;5027891;28;20037;-78
2023/01/13 01:14:04;;;;;;;3.33;1.13;;;;;;;11.38;72.16;96650.56;5027173;28;20040;-78
2023/01/13 01:16:31;;;;;;;3.05;0.90;;;;;;;11.91;70.21;96642.41;5011071;28;20359;-78
2023/01/13 01:18:57;;;;;;;2.05;0.95;;;;;;;11.23;72.75;96635.69;4994604;28;20390;-78
2023/01/13 01:21:24;;;;;;;1.83;0.82;;;;;;;11.48;72.00;96648.97;5027291;28;20052;-79
2023/01/13 01:23:50;;;;;;;1.25;0.98;;;;;;;11.34;72.32;96639.06;5027618;28;20041;-78
2023/01/13 01:26:21;;;;;;;2.78;1.10;;;;;;;11.60;71.42;96632.00;5030158;28;20045;-77
2023/01/13 01:28:47;;;;;;;3.72;0.90;;;;;;;11.87;70.65;96636.09;5031379;28;20048;-77
2023/01/13 01:31:16;;;;;;;1.20;0.65;;;;;;;11.76;71.40;96656.22;5014265;28;20532;-77
2023/01/13 01:33:41;;;;;;;1.60;0.90;;;;;;;11.57;71.70;96642.97;5014742;28;20124;-77
2023/01/13 01:36:08;;;;;;;1.80;0.60;;;;;;;11.64;71.01;96624.44;5014761;28;20172;-80
2023/01/13 01:38:33;;;;;;;2.35;1.35;;;;;;;11.71;70.58;96634.59;5014803;28;20040;-78
2023/01/13 01:40:59;;;;;;;1.52;1.00;;;;;;;11.15;73.23;96630.22;5013936;28;20017;-78
2023/01/13 01:44:01;;;;;;;1.20;0.77;;;;;;;11.71;71.61;96619.72;5032098;28;20033;-80
2023/01/13 01:46:37;;;;;;;2.70;1.10;;;;;;;11.60;71.75;96626.81;5015410;28;20400;-77
2023/01/13 01:49:23;;;;;;;1.45;0.75;;;;;;;12.02;70.14;96627.50;5027884;28;20456;-76
2023/01/13 01:51:56;;;;;;;;;;;;;;;12.04;70.18;96622.78;4997147;28;20036;-78
2023/01/13 01:54:35;;;;;;;2.17;0.88;;;;;;;12.05;69.82;96610.53;5013080;28;19921;-78
2023/01/13 01:57:01;;;;;;;1.42;0.60;;;;;;;11.64;71.13;96603.59;5028418;28;20444;-78
2023/01/13 01:59:28;;;;;;;4.03;1.00;;;;;;;11.68;71.20;96616.88;5014063;28;20052;-78
2023/01/13 02:01:53;;;;;;;1.27;0.60;;;;;;;11.59;71.54;96614.78;5011263;28;20084;-78
2023/01/13 02:04:26;;;;;;;3.33;1.40;;;;;;;11.86;70.97;96620.72;5026932;28;20033;-77
2023/01/13 02:06:52;;;;;;;2.58;0.73;;;;;;;11.72;71.39;96613.47;5030770;28;20750;-78
2023/01/13 02:09:17;;;;;;;4.13;0.60;;;;;;;11.84;70.68;96605.38;4997167;28;20450;-76
2023/01/13 02:14:28;;;;;;;2.15;0.88;;;;;;;12.01;70.02;96617.31;5030776;28;20507;-77
2023/01/13 02:17:30;;;;;;;1.00;0.45;;;;;;;12.14;70.03;96620.13;5013539;28;20524;-78
2023/01/13 02:20:22;;;;;;;1.42;0.90;;;;;;;12.20;69.82;96622.72;5030046;28;20060;-77
2023/01/13 02:22:50;;;;;;;1.77;0.60;;;;;;;11.98;70.49;96616.81;5029697;28;20048;-77
2023/01/13 02:26:03;;;;;;;0.70;0.55;;;;;;;12.30;69.51;96615.66;5030032;28;20086;-78
2023/01/13 02:28:38;;;;;;;3.30;1.33;;;;;;;11.70;71.05;96602.50;4996916;28;20045;-78
2023/01/13 02:34:17;;;;;;;1.77;0.70;;;;;;;11.85;70.08;96580.03;5030520;28;20055;-77
2023/01/13 02:36:46;;;;;;;1.67;0.68;;;;;;;11.55;71.99;96592.13;5010562;28;20444;-77
2023/01/13 02:39:16;;;;;;;1.23;0.40;;;;;;;11.58;71.86;96588.97;5028929;28;20026;-77
2023/01/13 02:44:37;;;;;;;0.80;0.40;;;;;;;11.88;71.18;96588.13;5030015;28;20044;-77
2023/01/13 02:47:06;;;;;;;1.48;0.90;;;;;;;11.54;72.03;96569.72;5013055;28;20033;-77
2023/01/13 02:49:36;;;;;;;1.23;0.70;;;;;;;11.86;70.89;96565.94;5013083;28;20045;-77
2023/01/13 02:52:10;;;;;;;0.82;0.50;;;;;;;11.94;70.17;96568.03;5013075;28;20140;-77
2023/01/13 02:54:36;;;;;;;2.15;0.93;;;;;;;11.69;71.21;96561.06;4997084;28;20033;-77
2023/01/13 02:57:02;;;;;;;1.25;0.50;;;;;;;11.71;71.28;96559.75;5012692;28;20346;-78
2023/01/13 02:59:29;;;;;;;1.17;0.60;;;;;;;11.67;71.66;96553.50;5013137;28;20079;-78
2023/01/13 03:01:55;;;;;;;2.40;0.60;;;;;;;11.80;70.83;96562.59;5009612;28;20129;-77
2023/01/13 03:04:53;;;;;;;0.90;0.47;;;;;;;12.03;70.70;96553.41;5012663;28;20143;-78
2023/01/13 03:07:58;;;;;;;2.03;0.73;;;;;;;12.03;70.43;96557.81;4998648;28;20448;-77
2023/01/13 03:10:40;;;;;;;1.40;0.60;;;;;;;11.88;71.14;96543.00;5029742;28;20041;-76
2023/01/13 03:13:05;;;;;;;0.75;0.60;;;;;;;11.34;72.24;96554.91;5013021;28;20460;-78
2023/01/13 03:15:52;;;;;;;1.80;0.60;;;;;;;10.73;74.94;96537.50;5029975;28;20558;-79
2023/01/13 03:18:34;;;;;;;1.00;0.50;;;;;;;11.93;70.67;96540.41;5029307;28;20030;-78
2023/01/13 03:20:59;;;;;;;1.00;0.80;;;;;;;11.20;73.05;96531.97;5012396;28;20065;-79
2023/01/13 03:23:31;;;;;;;2.08;1.48;;;;;;;11.66;71.72;96538.91;5029166;28;20076;-77
2023/01/13 03:26:06;;;;;;;2.63;1.58;;;;;;;11.81;71.50;96548.50;5028830;28;20497;-77
2023/01/13 03:28:36;;;;;;;1.48;0.90;;;;;;;11.67;71.11;96537.88;5012528;28;20037;-78
2023/01/13 03:31:10;;;;;;;3.42;0.73;;;;;;;11.81;71.23;96548.50;5028495;28;20036;-77
2023/01/13 03:33:41;;;;;;;2.33;1.17;;;;;;;11.81;71.26;96543.28;5030704;28;20033;-77
2023/01/13 03:36:08;;;;;;;2.22;0.88;;;;;;;11.86;70.67;96548.47;5030171;28;20295;-77
2023/01/13 03:38:41;;;;;;;3.13;0.90;;;;;;;12.01;70.82;96539.03;5028664;28;20103;-79
2023/01/13 03:41:31;;;;;;;1.73;1.00;;;;;;;11.69;72.09;96532.38;5012173;28;20108;-76
2023/01/13 03:44:22;;;;;;;1.80;1.05;;;;;;;11.71;71.70;96536.28;5028815;28;20048;-77
2023/01/13 03:47:10;;;;;;;1.42;1.10;;;;;;;11.86;70.79;96524.19;5013022;28;20038;-77
2023/01/13 03:49:59;;;;;;;1.52;0.77;;;;;;;11.87;70.74;96534.38;5028051;28;20038;-78
2023/01/13 03:52:27;;;;;;;1.42;0.80;;;;;;;11.46;72.34;96529.31;5012171;28;20033;-79
2023/01/13 03:55:08;;;;;;;2.78;0.68;;;;;;;11.86;71.31;96530.22;5028937;28;20566;-78
2023/01/13 03:57:37;;;;;;;1.40;0.90;;;;;;;11.45;72.26;96527.78;5008736;28;20132;-79
2023/01/13 04:00:04;;;;;;;2.20;1.13;;;;;;;11.74;71.10;96521.94;5024931;28;20087;-78
2023/01/13 04:02:44;;;;;;;1.95;0.85;;;;;;;12.07;70.53;96517.09;5000692;28;20080;-78
2023/01/13 04:05:10;;;;;;;1.70;1.52;;;;;;;11.88;71.02;96516.91;5018071;28;20037;-78
2023/01/13 04:07:44;;;;;;;2.67;1.00;;;;;;;11.83;71.42;96524.75;5011899;28;20139;-77
2023/01/13 04:10:11;;;;;;;1.15;0.65;;;;;;;11.55;72.07;96521.72;4995011;28;20072;-77
2023/01/13 04:13:02;;;;;;;3.00;1.25;;;;;;;11.91;70.88;96519.00;5028636;28;20045;-78
2023/01/13 04:15:35;;;;;;;2.45;0.60;;;;;;;11.96;70.20;96516.34;4994789;28;20084;-77
2023/01/13 04:18:16;;;;;;;2.53;1.65;;;;;;;11.76;71.63;96520.59;5024835;28;20041;-77
2023/01/13 04:20:43;;;;;;;1.48;0.60;;;;;;;11.48;71.80;96529.84;5027851;28;20112;-78
2023/01/13 04:23:09;;;;;;;1.77;0.80;;;;;;;11.56;72.37;96507.66;5028275;28;20060;-77
2023/01/13 04:25:35;;;;;;;2.67;0.70;;;;;;;11.65;71.77;96507.88;5027854;28;20068;-77
2023/01/13 04:28:00;;;;;;;1.00;0.68;;;;;;;11.47;72.01;96510.03;5028184;28;20152;-79
2023/01/13 04:30:26;;;;;;;2.22;0.70;;;;;;;11.53;72.60;96505.56;5027547;28;20393;-78
2023/01/13 04:32:51;;;;;;;1.58;0.90;;;;;;;11.95;70.58;96507.00;5028172;28;20064;-78
2023/01/13 04:35:16;;;;;;;0.90;0.70;;;;;;;11.60;72.04;96512.06;5027834;28;20095;-83
2023/01/13 04:37:42;;;;;;;1.08;0.70;;;;;;;11.61;72.03;96512.84;5011349;28;20035;-77
2023/01/13 04:40:08;;;;;;;2.03;0.80;;;;;;;11.84;71.15;96515.88;5011071;28;20030;-77
2023/01/13 04:42:33;;;;;;;1.42;0.50;;;;;;;11.94;70.71;96513.25;5029203;28;20030;-77
2023/01/13 04:44:58;;;;;;;1.48;0.73;;;;;;;11.94;70.43;96513.25;5011166;28;20531;-78
2023/01/13 04:47:24;;;;;;;2.83;0.93;;;;;;;11.58;71.57;96513.38;5028622;28;20408;-78
2023/01/13 04:49:49;;;;;;;1.05;0.50;;;;;;;11.73;71.45;96517.75;4994517;28;20029;-78
2023/01/13 04:52:15;;;;;;;0.88;0.60;;;;;;;11.84;70.72;96511.47;5011089;28;20067;-77
2023/01/13 04:54:40;;;;;;;3.22;0.60;;;;;;;11.93;70.50;96506.47;5011639;28;20486;-76
2023/01/13 04:57:05;;;;;;;3.58;0.82;;;;;;;11.75;71.25;96503.38;5027366;28;20029;-77
2023/01/13 04:59:31;;;;;;;2.40;0.70;;;;;;;11.39;72.57;96490.50;5026367;28;20037;-78
2023/01/13 05:01:56;;;;;;;0.65;0.40;;;;;;;11.54;72.07;96505.31;5021611;28;20091;-78
2023/01/13 05:04:21;;;;;;;0.90;0.50;;;;;;;11.47;72.50;96512.63;4994331;28;20053;-78
2023/01/13 05:06:47;;;;;;;3.60;0.60;;;;;;;11.54;72.47;96517.56;5027811;28;20551;-77
2023/01/13 05:09:14;;;;;;;2.00;0.55;;;;;;;11.60;72.05;96506.84;5010360;28;20036;-77
2023/01/13 05:17:23;;;;;;;2.40;1.05;;;;;;;11.43;72.34;96499.34;5027586;28;20550;-79
2023/01/13 05:19:49;;;;;;;1.48;0.50;;;;;;;11.59;71.99;96488.88;5028582;28;20124;-77
2023/01/13 05:27:42;;;;;;;1.55;1.00;;;;;;;11.77;71.12;96500.50;5008208;28;20067;-77
2023/01/13 05:30:08;;;;;;;2.13;0.73;;;;;;;11.54;72.45;96481.84;5025668;28;20112;-78
2023/01/13 05:32:33;;;;;;;1.73;0.63;;;;;;;11.96;70.69;96488.47;5027130;28;20045;-78
2023/01/13 05:34:59;;;;;;;2.00;0.60;;;;;;;12.01;70.09;96499.91;5028405;28;20056;-77
2023/01/13 05:37:25;;;;;;;1.00;0.50;;;;;;;11.64;71.57;96481.03;5010514;28;20048;-77
2023/01/13 05:45:19;;;;;;;1.05;0.70;;;;;;;11.67;71.33;96522.22;5012168;28;20083;-78
2023/01/13 05:47:44;;;;;;;1.52;0.60;;;;;;;12.12;69.85;96530.91;5026833;28;20513;-78
2023/01/13 05:50:09;;;;;;;0.85;0.55;;;;;;;12.09;69.95;96526.22;5027016;28;20485;-77
2023/01/13 05:52:35;;;;;;;1.52;0.60;;;;;;;11.97;69.98;96526.53;5010913;28;20029;-77
2023/01/13 05:55:00;;;;;;;1.77;0.50;;;;;;;12.10;69.52;96538.22;5010769;28;20512;-77
2023/01/13 05:57:26;;;;;;;1.52;0.45;;;;;;;12.20;69.31;96554.88;4990683;28;20034;-77
2023/01/13 05:59:51;;;;;;;1.35;0.90;;;;;;;12.19;69.18;96572.34;5021144;28;20475;-80
2023/01/13 06:02:16;;;;;;;1.60;0.40;;;;;;;12.09;69.41;96588.84;5022251;28;20034;-77
2023/01/13 06:04:42;;;;;;;1.27;0.47;;;;;;;12.07;69.00;96588.31;4993023;28;20511;-77
2023/01/13 06:07:07;;;;;;;0.85;0.40;;;;;;;12.04;68.99;96599.28;5027416;28;20030;-77
2023/01/13 06:09:33;;;;;;;0.52;0.40;;;;;;;12.20;68.35;96607.84;5009113;28;20495;-78
2023/01/13 06:11:58;;;;;;;1.08;0.80;;;;;;;12.09;68.65;96608.94;5028119;28;20086;-80
2023/01/13 06:14:23;;;;;;;1.38;0.60;;;;;;;12.13;68.08;96628.22;5012934;28;20533;-77
2023/01/13 06:16:49;;;;;;;0.38;0.25;;;;;;;12.25;67.18;96617.47;5029286;28;20076;-77
2023/01/13 06:19:14;;;;;;;0.30;0.30;;;;;;;12.12;67.73;96622.22;5030443;28;20029;-77
2023/01/13 06:21:40;;;;;;;0.68;0.20;;;;;;;12.12;67.75;96618.84;5013437;28;20021;-77
2023/01/13 06:24:06;;;;;;;0.50;0.20;;;;;;;12.07;67.79;96613.66;5013072;28;20033;-77
2023/01/13 06:26:37;;;;;;;2.15;0.50;;;;;;;11.98;67.78;96623.88;5012567;28;20050;-78
2023/01/13 06:29:03;;;;;;;1.63;0.20;;;;;;;11.90;67.68;96625.16;5012181;28;20053;-78
2023/01/13 06:31:29;;;;;;;0.40;0.22;;;;;;;12.00;67.30;96629.59;5012760;28;20045;-77
2023/01/13 06:33:58;;;;;;;2.00;0.30;;;;;;;11.77;68.28;96625.69;5029139;28;20409;-77
2023/01/13 06:36:28;;;;;;;1.38;0.28;;;;;;;11.93;67.60;96629.88;5012484;28;20524;-77
2023/01/13 06:38:57;;;;;;;0.95;0.20;;;;;;;11.97;67.31;96637.94;5028412;28;20134;-77
2023/01/13 06:43:13;;;;;;;0.82;0.20;;;;;;;11.87;66.55;96630.13;5028904;28;20481;-77
2023/01/13 06:44:08;;;;;;;0.40;0.20;;;;;;;11.97;67.05;96646.53;5029198;28;20038;-78
2023/01/13 06:46:34;;;;;;;1.00;0.30;;;;;;;11.91;66.87;96644.22;4996069;28;20404;-78
2023/01/13 06:49:00;;;;;;;1.10;0.20;;;;;;;11.80;66.97;96646.81;5029912;28;20645;-77
2023/01/13 06:51:25;;;;;;;0.60;0.20;;;;;;;11.72;67.37;96651.78;5013242;28;20040;-78
2023/01/13 06:53:50;;;;;;;0.30;0.20;;;;;;;11.81;66.66;96661.44;5030216;28;20480;-78
2023/01/13 06:56:16;;;;;;;2.20;0.20;;;;;;;11.74;66.71;96660.16;5030818;28;20088;-78
2023/01/13 06:58:41;;;;;;;0.65;0.20;;;;;;;11.66;67.12;96656.25;5029257;28;20044;-78
2023/01/13 07:01:07;;;;;;;0.88;0.10;;;;;;;11.47;66.98;96658.63;5029361;28;20037;-77
2023/01/13 07:03:32;;;;;;;1.55;0.38;;;;;;;11.24;67.97;96665.13;4994146;28;20033;-77
2023/01/13 07:05:58;;;;;;;1.13;0.20;;;;;;;11.44;67.27;96649.47;5025711;28;20194;-78
2023/01/13 07:08:24;;;;;;;0.63;0.10;;;;;;;11.46;66.78;96648.44;5013085;28;20056;-77
2023/01/13 07:10:50;;;;;;;2.20;0.20;;;;;;;11.52;66.52;96656.00;5029131;28;20088;-78
2023/01/13 07:16:01;;;;;;;0.73;0.20;;;;;;;11.43;67.02;96647.94;5015734;28;20057;-77
2023/01/13 07:18:30;;;;;;;1.98;0.40;;;;;;;11.24;67.14;96644.28;4992854;28;20034;-78
2023/01/13 07:20:58;;;;;;;0.75;0.20;;;;;;;11.13;67.82;96637.53;4993654;28;20056;-78
2023/01/13 07:23:24;;;;;;;1.65;0.63;;;;;;;10.97;67.85;96621.13;5003437;28;20505;-78
2023/01/13 07:25:50;;;;;;;2.60;0.40;;;;;;;10.97;68.08;96614.06;4992676;28;20493;-78
2023/01/13 07:28:15;;;;;;;0.40;0.20;;;;;;;11.18;67.59;96621.91;4995179;28;20042;-78
2023/01/13 07:30:41;;;;;;;0.60;0.30;;;;;;;11.19;67.70;96628.66;4996196;28;20017;-77
2023/01/13 07:33:06;;;;;;;2.15;0.20;;;;;;;11.24;66.84;96623.44;4996401;28;20034;-77
2023/01/13 07:35:31;;;;;;;3.63;0.50;;;;;;;11.16;67.11;96642.22;4996100;28;20037;-78
2023/01/13 07:37:57;;;;;;;1.92;0.30;;;;;;;11.33;66.29;96660.97;5012227;28;20045;-77
2023/01/13 07:40:22;;;;;;;1.20;0.22;;;;;;;11.38;66.87;96666.19;5011821;28;20118;-77
2023/01/13 07:45:31;;;;;;;1.45;0.30;;;;;;;11.31;66.54;96681.31;5029275;28;20042;-78
2023/01/13 07:47:57;;;;;;;0.95;0.20;;;;;;;11.20;66.91;96679.75;5030000;28;20036;-77
2023/01/13 07:50:22;;;;;;;2.55;0.35;;;;;;;11.25;67.15;96682.34;5029624;28;20034;-78
2023/01/13 07:52:49;;;;;;;1.88;0.82;;;;;;;11.29;66.85;96685.22;5011965;28;20508;-78
2023/01/13 07:55:14;;;;;;;1.15;0.30;;;;;;;11.17;67.34;96693.28;5012016;28;20036;-77
2023/01/13 07:57:39;;;;;;;1.77;0.85;;;;;;;11.11;67.60;96691.72;5012297;28;20030;-77
2023/01/13 08:00:06;;;;;;;0.57;0.30;;;;;;;11.34;66.98;96701.63;4995118;28;20389;-77
2023/01/13 08:02:31;;;;;;;4.47;2.05;;;;;;;11.30;66.53;96700.59;4983981;28;20045;-78
2023/01/13 08:04:56;;;;;;;3.83;0.40;;;;;;;11.34;66.61;96699.00;5016226;28;20486;-78
2023/01/13 08:07:22;;;;;;;1.83;0.50;;;;;;;11.20;67.39;96693.53;4995501;28;20503;-77
2023/01/13 08:09:47;;;;;;;2.08;0.65;;;;;;;11.28;66.99;96697.47;4995299;28;20366;-78
2023/01/13 08:14:57;;;;;;;2.20;0.82;;;;;;;11.30;67.26;96713.63;5028616;28;20400;-78
2023/01/13 08:17:23;;;;;;;3.05;0.40;;;;;;;11.33;66.98;96700.06;5028138;28;20033;-78
2023/01/13 08:19:48;;;;;;;1.38;0.43;;;;;;;11.31;66.58;96699.56;5011266;28;20036;-77
2023/01/13 08:22:14;;;;;;;2.70;0.63;;;;;;;11.43;66.78;96714.94;5011478;28;20025;-77
2023/01/13 08:24:39;;;;;;;1.65;0.30;;;;;;;11.39;66.77;96699.00;5012167;28;20033;-78
2023/01/13 08:27:04;;;;;;;2.65;0.40;;;;;;;11.14;66.98;96699.00;5011532;28;20412;-78
2023/01/13 08:29:30;;;;;;;5.10;1.10;;;;;;;10.99;68.35;96710.22;5011058;28;20045;-78
2023/01/13 08:31:55;;;;;;;5.00;0.57;;;;;;;11.04;68.29;96705.78;5010936;28;20453;-77
2023/01/13 08:34:20;;;;;;;2.42;0.40;;;;;;;11.11;68.10;96712.56;5027887;28;20055;-78
2023/01/13 08:36:48;;;;;;;3.63;0.95;;;;;;;11.42;66.88;96701.09;5011635;28;20037;-78
2023/01/13 08:39:13;;;;;;;1.77;0.43;;;;;;;11.15;68.14;96711.78;5011331;28;20051;-78
2023/01/13 08:41:54;;;;;;;3.28;0.40;;;;;;;11.33;67.34;96720.94;5029339;28;20037;-78
2023/01/13 08:44:20;;;;;;;2.80;0.30;;;;;;;11.25;67.49;96718.81;5013382;28;20076;-79
2023/01/13 08:46:46;;;;;;;5.35;0.70;;;;;;;11.32;66.98;96719.34;5011517;28;20083;-78
2023/01/13 08:49:11;;;;;;;2.92;1.00;;;;;;;11.39;66.65;96721.69;5010907;28;20033;-78
2023/01/13 08:51:37;;;;;;;3.20;0.60;;;;;;;11.28;67.40;96728.75;5027937;28;20108;-78
2023/01/13 08:54:02;;;;;;;3.72;0.40;;;;;;;11.35;67.65;96731.88;5027735;28;20064;-78
2023/01/13 08:56:28;;;;;;;3.55;0.57;;;;;;;11.26;68.12;96736.03;5010959;28;20033;-79
2023/01/13 08:58:57;;;;;;;2.95;0.90;;;;;;;11.34;67.85;96738.13;5027325;28;20041;-78
2023/01/13 09:01:22;;;;;;;3.08;1.23;;;;;;;11.37;67.16;96737.59;5008309;28;20562;-78
2023/01/13 09:03:48;;;;;;;2.75;0.60;;;;;;;11.27;67.80;96736.81;4991987;28;20034;-78
2023/01/13 09:06:13;;;;;;;3.40;0.60;;;;;;;11.22;67.90;96735.78;4992888;28;20383;-78
2023/01/13 09:08:38;;;;;;;5.70;0.70;;;;;;;10.86;67.83;96724.47;5010941;28;20096;-78
2023/01/13 09:13:10;;;;;;;2.65;0.57;;;;;;;11.15;67.04;96744.88;5010802;28;20459;-78
2023/01/13 09:13:49;;;;;;;3.72;1.00;;;;;;;11.13;66.74;96736.53;5013511;28;20033;-78
2023/01/13 09:16:15;;;;;;;3.30;0.70;;;;;;;11.25;65.89;96740.44;5027574;28;20033;-78
2023/01/13 09:18:40;;;;;;;8.13;0.68;;;;;;;11.12;66.17;96753.19;4994429;28;20037;-78
2023/01/13 09:21:10;;;;;;;2.95;0.63;;;;;;;11.29;66.38;96755.56;5028839;28;20378;-78
2023/01/13 09:23:35;;;;;;;4.78;0.90;;;;;;;10.82;66.92;96767.72;4994588;28;20033;-78
2023/01/13 09:26:01;;;;;;;4.80;1.13;;;;;;;11.34;66.12;96777.22;4994409;28;20151;-78
2023/01/13 09:28:26;;;;;;;5.38;0.90;;;;;;;11.33;65.90;96778.28;5010421;28;20037;-77
2023/01/13 09:30:51;;;;;;;6.40;1.55;;;;;;;11.34;65.28;96792.06;5010863;28;20038;-78
2023/01/13 09:36:00;;;;;;;3.13;1.35;;;;;;;11.37;65.57;96781.91;5028369;28;20076;-78
2023/01/13 09:38:26;;;;;;;6.95;0.70;;;;;;;11.08;65.89;96786.03;5026784;28;20065;-78
2023/01/13 09:40:52;;;;;;;3.25;0.90;;;;;;;11.32;65.75;96791.56;5026906;28;20022;-77
2023/01/13 09:49:02;;;;;;;5.70;0.77;;;;;;;11.31;63.64;96801.19;5030962;28;20450;-79
2023/01/13 09:51:48;;;;;;;3.15;0.80;;;;;;;11.57;63.65;96804.63;5011642;28;20036;-78
2023/01/13 09:54:34;;;;;;;4.75;1.00;;;;;;;11.65;63.91;96803.31;5029222;28;20030;-78
2023/01/13 09:56:59;;;;;;;4.80;1.00;;;;;;;11.30;64.15;96807.44;5030921;28;20029;-78
2023/01/13 09:59:35;;;;;;;3.88;1.02;;;;;;;11.35;64.76;96809.28;5030462;28;20060;-78
2023/01/13 10:02:38;;;;;;;2.85;0.70;;;;;;;11.70;62.99;96808.53;5006810;28;20553;-78
2023/01/13 10:05:31;;;;;;;7.88;0.73;;;;;;;11.69;62.71;96814.81;5002908;28;20493;-78
2023/01/13 10:08:03;;;;;;;8.75;1.63;;;;;;;11.58;62.16;96815.81;4986946;28;20405;-78
2023/01/13 10:10:34;;;;;;;4.47;0.80;;;;;;;11.55;61.83;96813.72;4997415;28;20823;-78
2023/01/13 10:16:04;;;;;;;6.35;0.80;;;;;;;11.17;61.80;96806.13;5006929;28;20080;-78
2023/01/13 10:18:36;;;;;;;3.83;1.08;;;;;;;11.49;61.08;96812.19;5010567;28;20736;-78
2023/01/13 10:21:40;;;;;;;4.47;1.13;;;;;;;11.57;61.58;96815.06;5010782;28;20463;-79
2023/01/13 10:24:18;;;;;;;3.30;0.80;;;;;;;11.76;61.65;96811.94;5030900;28;20116;-77
2023/01/13 10:27:16;;;;;;;6.03;0.70;;;;;;;11.79;61.34;96811.44;5029879;28;20064;-78
2023/01/13 10:29:41;;;;;;;7.07;1.35;;;;;;;11.31;62.03;96829.88;5013482;28;20049;-78
2023/01/13 10:32:06;;;;;;;8.32;1.30;;;;;;;11.31;61.47;96827.28;5030155;28;20038;-78
2023/01/13 10:34:44;;;;;;;5.25;0.82;;;;;;;11.37;61.39;96831.44;5030352;28;20038;-77
2023/01/13 10:37:25;;;;;;;8.55;1.58;;;;;;;11.23;62.49;96836.34;4997696;28;20110;-77
2023/01/13 10:39:54;;;;;;;5.28;0.80;;;;;;;11.09;61.76;96843.09;4997119;28;20500;-77
2023/01/13 10:42:21;;;;;;;5.70;1.15;;;;;;;11.49;62.08;96844.25;5029878;28;20126;-78
2023/01/13 10:44:50;;;;;;;2.08;0.68;;;;;;;11.67;61.67;96836.97;5013502;28;20508;-78
2023/01/13 10:47:28;;;;;;;3.60;0.80;;;;;;;11.64;60.34;96842.72;5013404;28;20029;-78
2023/01/13 10:50:11;;;;;;;6.97;1.40;;;;;;;11.66;60.26;96838.78;5012701;28;20026;-79
2023/01/13 10:52:41;;;;;;;6.60;1.00;;;;;;;11.47;61.35;96837.72;5013411;28;20485;-78
2023/01/13 10:55:26;;;;;;;6.20;0.77;;;;;;;11.70;60.05;96834.59;5013692;28;20029;-78
2023/01/13 10:57:51;;;;;;;4.13;0.93;;;;;;;11.71;60.89;96836.19;5013174;28;20061;-78
2023/01/13 11:00:30;;;;;;;3.45;1.27;;;;;;;11.75;61.22;96831.22;5012788;28;20052;-78
2023/01/13 11:03:16;;;;;;;5.10;1.00;;;;;;;11.69;60.21;96822.63;5009509;28;20034;-77
2023/01/13 11:05:58;;;;;;;5.40;1.33;;;;;;;11.62;61.03;96822.88;5003842;28;20030;-77
2023/01/13 11:08:27;;;;;;;6.05;1.23;;;;;;;11.49;61.45;96828.59;4985066;28;20528;-78
2023/01/13 11:10:56;;;;;;;8.98;1.42;;;;;;;11.65;60.69;96826.00;5000262;28;20517;-77
2023/01/13 11:13:26;;;;;;;6.97;2.25;;;;;;;11.34;60.64;96829.34;5012855;28;20076;-78
2023/01/13 11:15:53;;;;;;;7.65;1.40;;;;;;;11.09;61.31;96826.66;5031028;28;20065;-77
2023/01/13 11:19:01;;;;;;;5.10;1.10;;;;;;;10.98;61.15;96826.63;5028910;28;20096;-79
2023/01/13 11:22:11;;;;;;;5.50;0.80;;;;;;;11.15;62.15;96834.25;4993311;28;20133;-78
2023/01/13 11:24:51;;;;;;;6.07;1.17;;;;;;;11.18;61.42;96831.13;5008028;28;20076;-77
2023/01/13 11:27:55;;;;;;;5.10;0.70;;;;;;;11.44;60.55;96842.41;5028066;28;20091;-77
2023/01/13 11:30:41;;;;;;;7.68;1.13;;;;;;;11.59;60.51;96848.69;5012102;28;20041;-77
2023/01/13 11:33:09;;;;;;;6.07;1.58;;;;;;;11.42;61.38;96841.09;5030406;28;20033;-78
2023/01/13 11:36:00;;;;;;;8.23;1.58;;;;;;;11.43;62.37;96842.69;5012649;28;20033;-78
2023/01/13 11:38:32;;;;;;;6.10;1.05;;;;;;;11.35;62.36;96851.00;5027930;28;20128;-77
2023/01/13 11:41:08;;;;;;;5.80;0.93;;;;;;;11.04;62.43;96851.66;5011894;28;20025;-77
2023/01/13 11:43:44;;;;;;;4.90;0.90;;;;;;;11.21;62.42;96863.72;5012532;28;20705;-78
2023/01/13 11:46:10;;;;;;;3.70;0.73;;;;;;;10.83;63.07;96878.66;5028801;28;20417;-77
2023/01/13 11:48:36;;;;;;;6.38;1.15;;;;;;;10.46;62.23;96880.28;4996088;28;20037;-78
2023/01/13 11:51:15;;;;;;;3.60;0.73;;;;;;;10.29;63.25;96869.97;5012145;28;20498;-77
2023/01/13 11:53:43;;;;;;;3.67;0.50;;;;;;;10.43;62.95;96872.19;5012030;28;20040;-77
2023/01/13 11:56:30;;;;;;;5.13;1.27;;;;;;;10.65;62.26;96872.84;5030238;28;20293;-77
2023/01/13 11:59:24;;;;;;;6.90;1.35;;;;;;;10.79;62.51;96867.19;5027973;28;20436;-78
2023/01/13 12:02:27;;;;;;;5.40;1.27;;;;;;;10.84;63.13;96875.03;4989622;28;20034;-78
2023/01/13 12:05:05;;;;;;;4.68;1.02;;;;;;;11.05;62.86;96886.31;5016909;28;20163;-78
2023/01/13 12:07:33;;;;;;;4.60;1.75;;;;;;;11.13;63.33;96890.25;5011882;28;20128;-78
2023/01/13 12:10:07;;;;;;;5.63;1.65;;;;;;;11.21;63.04;96895.00;5011265;28;20513;-77
2023/01/13 12:12:46;;;;;;;6.83;0.90;;;;;;;11.23;63.47;96885.88;5029883;28;20112;-78
2023/01/13 12:15:11;;;;;;;4.68;1.70;;;;;;;11.04;64.26;96880.31;5011697;28;20056;-78
2023/01/13 12:17:49;;;;;;;6.45;1.20;;;;;;;11.02;63.65;96879.03;5028126;28;20034;-78
2023/01/13 12:20:26;;;;;;;3.10;1.48;;;;;;;10.83;63.58;96881.25;5011225;28;20405;-77
2023/01/13 12:22:53;;;;;;;4.75;1.02;;;;;;;10.88;63.36;96873.47;5011656;28;20489;-78
2023/01/13 12:25:22;;;;;;;4.68;1.00;;;;;;;11.01;62.78;96886.03;5027996;28;20115;-77
2023/01/13 12:28:00;;;;;;;5.05;1.52;;;;;;;11.44;61.98;96867.69;5028236;28;20047;-78
2023/01/13 12:30:25;;;;;;;5.93;0.95;;;;;;;11.53;63.00;96870.56;5027922;28;20028;-77
2023/01/13 12:32:53;;;;;;;5.78;0.90;;;;;;;11.58;62.34;96862.75;5028155;28;20230;-78
2023/01/13 12:35:18;;;;;;;5.05;1.10;;;;;;;11.21;63.84;96868.94;5028125;28;20033;-78
2023/01/13 12:37:49;;;;;;;6.15;0.80;;;;;;;11.55;61.90;96869.28;5011334;28;20041;-78